createdAt,value
2023-02-28T00:04:10.440Z,72.70
2023-02-28T00:09:12.337Z,72.67
2023-02-28T00:14:14.174Z,72.59
2023-02-28T00:19:15.967Z,72.58
2023-02-28T00:24:17.847Z,72.46
2023-02-28T00:29:19.687Z,72.42
2023-02-28T00:34:21.733Z,72.33
2023-02-28T00:39:23.967Z,72.45
2023-02-28T00:44:25.779Z,72.53
2023-02-28T00:49:29.504Z,72.44
2023-02-28T00:54:31.374Z,72.32
2023-02-28T00:59:33.232Z,72.52
2023-02-28T01:04:36.532Z,72.62
2023-02-28T01:09:38.424Z,72.74
2023-02-28T01:14:40.396Z,72.82
2023-02-28T01:19:42.247Z,72.64
2023-02-28T01:24:47.484Z,72.76
2023-02-28T01:29:52.247Z,72.69
2023-02-28T01:34:54.448Z,72.61
2023-02-28T01:39:58.820Z,72.73
2023-02-28T01:45:03.187Z,72.59
2023-02-28T01:50:13.590Z,72.64
2023-02-28T01:55:18.025Z,72.63
2023-02-28T02:00:24.851Z,72.54
2023-02-28T02:05:32.178Z,72.54
2023-02-28T02:10:37.752Z,72.60
2023-02-28T02:16:03.839Z,72.59
2023-02-28T02:21:16.468Z,72.45
2023-02-28T02:26:24.566Z,72.51
2023-02-28T02:31:44.808Z,72.56
2023-02-28T02:36:54.525Z,72.45
2023-02-28T02:41:59.541Z,72.50
2023-02-28T02:47:15.826Z,72.61
2023-02-28T02:52:22.592Z,72.54
2023-02-28T02:57:31.508Z,72.49
2023-02-28T03:02:35.813Z,72.49
2023-02-28T03:07:37.616Z,72.50
2023-02-28T03:12:55.290Z,72.72
2023-02-28T03:18:10.871Z,72.56
2023-02-28T03:23:29.740Z,72.80
2023-02-28T03:29:04.713Z,72.87
2023-02-28T03:34:15.470Z,72.68
2023-02-28T03:39:26.516Z,72.73
2023-02-28T03:44:40.212Z,72.71
2023-02-28T03:49:50.691Z,72.78
2023-02-28T03:54:57.537Z,72.61
2023-02-28T04:00:22.697Z,72.51
2023-02-28T04:05:25.182Z,72.51
2023-02-28T04:10:26.970Z,72.38
2023-02-28T04:15:29.429Z,72.34
2023-02-28T04:20:31.217Z,72.29
2023-02-28T04:25:32.951Z,72.25
2023-02-28T04:30:34.796Z,72.23
2023-02-28T04:35:36.684Z,71.94
2023-02-28T04:40:38.573Z,71.90
2023-02-28T04:45:40.496Z,72.02
2023-02-28T04:50:42.547Z,71.81
2023-02-28T04:55:44.941Z,71.87
2023-02-28T05:00:46.809Z,71.85
2023-02-28T05:05:49.482Z,71.66
2023-02-28T05:10:51.237Z,71.77
2023-02-28T05:15:53.094Z,71.60
2023-02-28T05:20:54.875Z,71.63
2023-02-28T05:25:57.293Z,71.40
2023-02-28T05:30:59.136Z,71.59
2023-02-28T05:36:01.007Z,71.40
2023-02-28T05:41:09.710Z,71.37
2023-02-28T05:46:13.532Z,71.35
2023-02-28T05:51:16.273Z,71.24
2023-02-28T05:56:18.233Z,71.37
2023-02-28T06:01:40.677Z,71.32
2023-02-28T06:06:42.591Z,71.37
2023-02-28T06:11:44.603Z,71.27
2023-02-28T06:16:47.309Z,71.28
2023-02-28T06:21:53.412Z,71.15
2023-02-28T06:26:55.160Z,71.30
2023-02-28T06:31:57.019Z,71.27
2023-02-28T06:37:03.256Z,71.35
2023-02-28T06:42:05.256Z,71.69
2023-02-28T06:47:07.587Z,71.43
2023-02-28T06:52:10.952Z,71.47
2023-02-28T06:57:12.782Z,71.54
2023-02-28T07:02:14.715Z,71.64
2023-02-28T07:07:16.681Z,71.88
2023-02-28T07:12:19.053Z,71.96
2023-02-28T07:17:20.881Z,71.86
2023-02-28T07:22:23.041Z,72.12
2023-02-28T07:27:26.659Z,72.26
2023-02-28T07:32:29.328Z,72.31
2023-02-28T07:37:32.807Z,72.35
2023-02-28T07:42:35.202Z,72.35
2023-02-28T07:47:40.076Z,72.35
2023-02-28T07:52:42.650Z,72.42
2023-02-28T07:57:44.617Z,72.53
2023-02-28T08:02:46.667Z,72.35
2023-02-28T08:07:52.581Z,72.39
2023-02-28T08:12:54.427Z,72.14
2023-02-28T08:17:57.340Z,72.17
2023-02-28T08:22:59.082Z,72.09
2023-02-28T08:28:00.935Z,72.08
2023-02-28T08:33:03.032Z,72.00
2023-02-28T08:38:04.904Z,71.57
2023-02-28T08:43:06.768Z,71.13
2023-02-28T08:48:08.808Z,71.03
2023-02-28T08:53:10.709Z,71.08
2023-02-28T08:58:12.563Z,70.53
2023-02-28T09:03:14.426Z,70.51
2023-02-28T09:08:16.171Z,70.21
2023-02-28T09:13:18.456Z,69.85
2023-02-28T09:18:20.924Z,69.55
2023-02-28T09:23:23.133Z,69.14
2023-02-28T09:28:25.611Z,68.63
2023-02-28T09:33:27.897Z,68.25
2023-02-28T09:38:29.760Z,67.74
2023-02-28T09:43:39.959Z,67.55
2023-02-28T09:48:47.152Z,67.04
2023-02-28T09:53:53.401Z,66.97
2023-02-28T09:59:11.199Z,66.40
2023-02-28T10:04:22.081Z,66.30
2023-02-28T10:09:31.587Z,65.94
2023-02-28T10:14:35.582Z,66.01
2023-02-28T10:19:40.372Z,65.77
2023-02-28T10:24:48.204Z,65.13
2023-02-28T10:29:51.767Z,64.85
2023-02-28T10:35:22.729Z,64.37
2023-02-28T10:40:24.599Z,64.30
2023-02-28T10:45:29.351Z,64.32
2023-02-28T10:50:45.516Z,64.34
2023-02-28T10:56:02.138Z,64.32
2023-02-28T11:01:04.112Z,64.43
2023-02-28T11:06:17.163Z,64.02
2023-02-28T11:11:20.172Z,63.72
2023-02-28T11:16:23.424Z,63.66
2023-02-28T11:21:34.767Z,63.80
2023-02-28T11:26:43.523Z,63.72
2023-02-28T11:31:58.934Z,63.63
2023-02-28T11:37:05.974Z,63.53
2023-02-28T11:42:42.813Z,63.65
2023-02-28T11:47:44.623Z,63.67
2023-02-28T11:53:11.720Z,63.40
2023-02-28T11:58:35.132Z,63.57
2023-02-28T12:03:50.107Z,63.46
2023-02-28T12:09:28.750Z,63.31
2023-02-28T12:14:45.743Z,63.12
2023-02-28T12:20:13.868Z,63.19
2023-02-28T12:25:42.017Z,63.19
2023-02-28T12:31:24.649Z,62.89
2023-02-28T12:36:28.441Z,63.01
2023-02-28T12:41:56.625Z,62.88
2023-02-28T12:47:05.896Z,62.63
2023-02-28T12:52:12.094Z,62.98
2023-02-28T12:57:37.496Z,62.67
2023-02-28T13:02:42.316Z,62.51
2023-02-28T13:08:05.622Z,62.34
2023-02-28T13:13:07.924Z,62.54
2023-02-28T13:18:40.675Z,62.32
2023-02-28T13:24:00.263Z,62.20
2023-02-28T13:29:25.610Z,62.62
2023-02-28T13:34:28.000Z,62.47
2023-02-28T13:39:36.378Z,62.38
2023-02-28T13:45:07.325Z,62.49
2023-02-28T13:50:27.149Z,62.76
2023-02-28T13:55:33.627Z,62.73
2023-02-28T14:01:05.837Z,62.25
2023-02-28T14:06:33.641Z,62.35
2023-02-28T14:11:39.315Z,62.60
2023-02-28T14:16:45.800Z,62.39
2023-02-28T14:22:05.253Z,62.28
2023-02-28T14:27:12.672Z,62.49
2023-02-28T14:32:36.365Z,62.42
2023-02-28T14:37:42.775Z,62.63
2023-02-28T14:42:56.847Z,62.58
2023-02-28T14:48:03.726Z,62.66
2023-02-28T14:53:17.049Z,62.45
2023-02-28T14:58:27.173Z,62.42
2023-02-28T15:03:32.239Z,62.70
2023-02-28T15:08:37.372Z,62.71
2023-02-28T15:13:42.518Z,62.87
2023-02-28T15:18:53.801Z,62.80
2023-02-28T15:24:06.151Z,63.00
2023-02-28T15:29:14.929Z,62.82
2023-02-28T15:34:36.993Z,62.78
2023-02-28T15:39:45.601Z,62.89
2023-02-28T15:44:47.917Z,62.85
2023-02-28T15:49:56.560Z,62.85
2023-02-28T15:55:13.812Z,62.84
2023-02-28T16:00:20.284Z,63.00
2023-02-28T16:05:33.122Z,62.99
2023-02-28T16:10:35.340Z,63.09
2023-02-28T16:15:43.427Z,63.04
2023-02-28T16:20:45.847Z,63.19
2023-02-28T16:25:47.792Z,63.43
2023-02-28T16:30:53.158Z,63.20
2023-02-28T16:35:55.118Z,63.59
2023-02-28T16:41:00.671Z,63.53
2023-02-28T16:46:04.770Z,63.46
2023-02-28T16:51:06.635Z,63.65
2023-02-28T16:56:17.372Z,63.74
2023-02-28T17:01:23.020Z,63.75
2023-02-28T17:06:29.129Z,63.86
2023-02-28T17:11:31.849Z,64.11
2023-02-28T17:16:37.227Z,64.06
2023-02-28T17:21:40.735Z,64.29
2023-02-28T17:26:43.926Z,64.37
2023-02-28T17:31:46.373Z,64.44
2023-02-28T17:36:50.619Z,64.60
2023-02-28T17:41:53.412Z,64.71
2023-02-28T17:46:57.013Z,65.13
2023-02-28T17:51:58.921Z,64.92
2023-02-28T17:57:01.186Z,64.92
2023-02-28T18:02:05.095Z,65.11
2023-02-28T18:07:10.310Z,65.16
2023-02-28T18:12:12.349Z,65.15
2023-02-28T18:17:14.398Z,65.25
2023-02-28T18:22:16.872Z,65.38
2023-02-28T18:27:18.894Z,65.51
2023-02-28T18:32:21.195Z,65.37
2023-02-28T18:37:23.186Z,65.59
2023-02-28T18:42:25.601Z,65.64
2023-02-28T18:47:27.673Z,65.63
2023-02-28T18:52:29.646Z,65.67
2023-02-28T18:57:31.506Z,65.88
2023-02-28T19:02:33.452Z,65.70
2023-02-28T19:07:36.219Z,65.81
2023-02-28T19:12:39.466Z,65.93
2023-02-28T19:17:41.790Z,65.80
2023-02-28T19:22:44.638Z,65.93
2023-02-28T19:27:46.621Z,66.06
2023-02-28T19:32:49.196Z,65.96
2023-02-28T19:37:52.891Z,66.08
2023-02-28T19:42:54.723Z,66.02
2023-02-28T19:47:56.717Z,66.13
2023-02-28T19:53:00.431Z,66.05
2023-02-28T19:58:02.544Z,66.11
2023-02-28T20:03:04.438Z,66.20
2023-02-28T20:08:07.620Z,66.24
2023-02-28T20:13:09.769Z,66.46
2023-02-28T20:18:11.961Z,66.28
2023-02-28T20:23:13.837Z,66.35
2023-02-28T20:28:15.694Z,66.48
2023-02-28T20:33:19.103Z,66.54
2023-02-28T20:38:21.117Z,66.40
2023-02-28T20:43:23.815Z,66.59
2023-02-28T20:48:25.991Z,66.61
2023-02-28T20:53:28.628Z,66.21
2023-02-28T20:58:33.614Z,66.71
2023-02-28T21:03:36.430Z,66.76
2023-02-28T21:08:39.502Z,66.61
2023-02-28T21:13:43.149Z,66.65
2023-02-28T21:18:46.221Z,66.83
2023-02-28T21:23:50.565Z,66.74
2023-02-28T21:28:55.401Z,66.87
2023-02-28T21:33:58.820Z,66.79
2023-02-28T21:39:17.271Z,66.65
2023-02-28T21:44:19.585Z,66.89
2023-02-28T21:49:24.518Z,66.70
2023-02-28T21:54:26.560Z,66.87
2023-02-28T21:59:28.435Z,66.84
2023-02-28T22:04:30.322Z,66.73
2023-02-28T22:09:32.519Z,66.72
2023-02-28T22:14:34.350Z,66.83
2023-02-28T22:19:36.867Z,66.76
2023-02-28T22:24:38.714Z,66.79
2023-02-28T22:29:40.538Z,66.88
2023-02-28T22:34:42.452Z,66.92
2023-02-28T22:39:45.766Z,66.86
2023-02-28T22:44:51.061Z,66.83
2023-02-28T22:49:52.809Z,66.84
2023-02-28T22:54:54.525Z,66.76
2023-02-28T22:59:56.430Z,66.84
2023-02-28T23:04:58.187Z,66.93
2023-02-28T23:09:59.984Z,66.97
2023-02-28T23:15:02.035Z,67.08
2023-02-28T23:20:04.016Z,66.93
2023-02-28T23:25:06.505Z,66.97
2023-02-28T23:30:10.463Z,66.83
2023-02-28T23:35:12.483Z,66.90
2023-02-28T23:40:14.971Z,66.97
2023-02-28T23:45:18.453Z,67.01
2023-02-28T23:50:20.311Z,67.08
2023-02-28T23:55:22.187Z,66.92
